sensor_id;sensor_type;location;lat;lon;timestamp;P1;durP1;ratioP1;P2;durP2;ratioP2
23290;SDS011;11814;44.686;10.842;2023-02-01T00:00:11;42.67;;;24.23;;
23290;SDS011;11814;44.686;10.842;2023-02-01T00:02:37;41.70;;;23.25;;
23290;SDS011;11814;44.686;10.842;2023-02-01T00:05:06;35.83;;;20.67;;
23290;SDS011;11814;44.686;10.842;2023-02-01T00:07:34;37.08;;;22.60;;
23290;SDS011;11814;44.686;10.842;2023-02-01T00:10:00;36.55;;;21.20;;
23290;SDS011;11814;44.686;10.842;2023-02-01T00:12:26;47.13;;;23.60;;
23290;SDS011;11814;44.686;10.842;2023-02-01T00:14:51;44.05;;;21.48;;
23290;SDS011;11814;44.686;10.842;2023-02-01T00:17:17;38.67;;;21.17;;
23290;SDS011;11814;44.686;10.842;2023-02-01T00:19:43;38.92;;;23.20;;
23290;SDS011;11814;44.686;10.842;2023-02-01T00:22:09;35.67;;;20.83;;
23290;SDS011;11814;44.686;10.842;2023-02-01T00:24:34;37.63;;;20.45;;
23290;SDS011;11814;44.686;10.842;2023-02-01T00:27:00;36.42;;;19.65;;
23290;SDS011;11814;44.686;10.842;2023-02-01T00:29:26;33.85;;;19.27;;
23290;SDS011;11814;44.686;10.842;2023-02-01T00:31:52;32.92;;;18.38;;
23290;SDS011;11814;44.686;10.842;2023-02-01T00:34:18;29.27;;;17.38;;
23290;SDS011;11814;44.686;10.842;2023-02-01T00:36:44;27.67;;;16.45;;
23290;SDS011;11814;44.686;10.842;2023-02-01T00:39:10;29.55;;;16.27;;
23290;SDS011;11814;44.686;10.842;2023-02-01T00:41:37;28.80;;;16.05;;
23290;SDS011;11814;44.686;10.842;2023-02-01T00:44:03;25.10;;;14.13;;
23290;SDS011;11814;44.686;10.842;2023-02-01T00:46:29;26.20;;;14.35;;
23290;SDS011;11814;44.686;10.842;2023-02-01T00:48:55;23.65;;;14.15;;
23290;SDS011;11814;44.686;10.842;2023-02-01T00:51:22;28.83;;;14.80;;
23290;SDS011;11814;44.686;10.842;2023-02-01T00:53:50;26.05;;;14.95;;
23290;SDS011;11814;44.686;10.842;2023-02-01T00:56:16;26.42;;;14.30;;
23290;SDS011;11814;44.686;10.842;2023-02-01T00:58:42;21.63;;;13.45;;
23290;SDS011;11814;44.686;10.842;2023-02-01T01:03:43;23.83;;;13.40;;
23290;SDS011;11814;44.686;10.842;2023-02-01T01:06:12;23.13;;;13.90;;
23290;SDS011;11814;44.686;10.842;2023-02-01T01:08:40;24.40;;;13.50;;
23290;SDS011;11814;44.686;10.842;2023-02-01T01:11:13;22.52;;;13.23;;
23290;SDS011;11814;44.686;10.842;2023-02-01T01:13:41;22.77;;;12.43;;
23290;SDS011;11814;44.686;10.842;2023-02-01T01:16:08;24.15;;;13.00;;
23290;SDS011;11814;44.686;10.842;2023-02-01T01:18:35;23.73;;;13.35;;
23290;SDS011;11814;44.686;10.842;2023-02-01T01:21:01;25.80;;;14.05;;
23290;SDS011;11814;44.686;10.842;2023-02-01T01:23:30;26.13;;;15.07;;
23290;SDS011;11814;44.686;10.842;2023-02-01T01:25:56;24.67;;;13.35;;
23290;SDS011;11814;44.686;10.842;2023-02-01T01:28:21;23.00;;;12.13;;
23290;SDS011;11814;44.686;10.842;2023-02-01T01:30:47;24.23;;;14.57;;
23290;SDS011;11814;44.686;10.842;2023-02-01T01:33:13;19.63;;;12.52;;
23290;SDS011;11814;44.686;10.842;2023-02-01T01:35:39;26.27;;;13.93;;
23290;SDS011;11814;44.686;10.842;2023-02-01T01:38:05;24.10;;;13.65;;
23290;SDS011;11814;44.686;10.842;2023-02-01T01:40:30;30.02;;;14.45;;
23290;SDS011;11814;44.686;10.842;2023-02-01T01:42:57;24.58;;;14.48;;
23290;SDS011;11814;44.686;10.842;2023-02-01T01:47:57;25.58;;;14.73;;
23290;SDS011;11814;44.686;10.842;2023-02-01T01:50:37;23.30;;;14.32;;
23290;SDS011;11814;44.686;10.842;2023-02-01T01:53:20;25.60;;;13.02;;
23290;SDS011;11814;44.686;10.842;2023-02-01T01:55:50;23.77;;;13.10;;
23290;SDS011;11814;44.686;10.842;2023-02-01T01:58:18;24.67;;;13.35;;
23290;SDS011;11814;44.686;10.842;2023-02-01T02:00:46;28.08;;;14.93;;
23290;SDS011;11814;44.686;10.842;2023-02-01T02:03:20;23.80;;;14.27;;
23290;SDS011;11814;44.686;10.842;2023-02-01T02:05:46;27.13;;;14.27;;
23290;SDS011;11814;44.686;10.842;2023-02-01T02:08:14;25.27;;;13.45;;
23290;SDS011;11814;44.686;10.842;2023-02-01T02:10:40;21.65;;;13.82;;
23290;SDS011;11814;44.686;10.842;2023-02-01T02:13:36;26.02;;;13.82;;
23290;SDS011;11814;44.686;10.842;2023-02-01T02:16:14;25.02;;;14.27;;
23290;SDS011;11814;44.686;10.842;2023-02-01T02:21:47;25.45;;;14.50;;
23290;SDS011;11814;44.686;10.842;2023-02-01T02:30:02;24.30;;;14.63;;
23290;SDS011;11814;44.686;10.842;2023-02-01T02:40:48;23.33;;;13.50;;
23290;SDS011;11814;44.686;10.842;2023-02-01T02:43:19;21.80;;;13.68;;
23290;SDS011;11814;44.686;10.842;2023-02-01T02:46:39;25.23;;;12.10;;
23290;SDS011;11814;44.686;10.842;2023-02-01T02:49:27;22.15;;;11.65;;
23290;SDS011;11814;44.686;10.842;2023-02-01T02:52:36;23.65;;;10.73;;
23290;SDS011;11814;44.686;10.842;2023-02-01T02:55:26;16.17;;;9.77;;
23290;SDS011;11814;44.686;10.842;2023-02-01T02:57:53;17.15;;;9.75;;
23290;SDS011;11814;44.686;10.842;2023-02-01T03:00:39;16.92;;;9.35;;
23290;SDS011;11814;44.686;10.842;2023-02-01T03:03:25;18.73;;;10.90;;
23290;SDS011;11814;44.686;10.842;2023-02-01T03:06:16;24.98;;;13.25;;
23290;SDS011;11814;44.686;10.842;2023-02-01T03:08:43;21.80;;;12.98;;
23290;SDS011;11814;44.686;10.842;2023-02-01T03:11:11;20.73;;;12.63;;
23290;SDS011;11814;44.686;10.842;2023-02-01T03:13:48;19.88;;;12.57;;
23290;SDS011;11814;44.686;10.842;2023-02-01T03:16:17;22.60;;;13.35;;
23290;SDS011;11814;44.686;10.842;2023-02-01T03:21:22;21.50;;;13.10;;
23290;SDS011;11814;44.686;10.842;2023-02-01T03:23:53;20.60;;;12.07;;
23290;SDS011;11814;44.686;10.842;2023-02-01T03:26:23;21.13;;;13.68;;
23290;SDS011;11814;44.686;10.842;2023-02-01T03:29:05;18.55;;;11.65;;
23290;SDS011;11814;44.686;10.842;2023-02-01T03:31:36;19.90;;;11.73;;
23290;SDS011;11814;44.686;10.842;2023-02-01T03:34:03;19.55;;;10.55;;
23290;SDS011;11814;44.686;10.842;2023-02-01T03:39:02;20.70;;;11.23;;
23290;SDS011;11814;44.686;10.842;2023-02-01T03:41:41;16.02;;;9.75;;
23290;SDS011;11814;44.686;10.842;2023-02-01T03:46:44;19.42;;;11.32;;
23290;SDS011;11814;44.686;10.842;2023-02-01T03:49:31;26.55;;;10.90;;
23290;SDS011;11814;44.686;10.842;2023-02-01T03:52:00;17.10;;;10.02;;
23290;SDS011;11814;44.686;10.842;2023-02-01T03:54:28;21.73;;;11.45;;
23290;SDS011;11814;44.686;10.842;2023-02-01T03:56:56;17.65;;;10.68;;
23290;SDS011;11814;44.686;10.842;2023-02-01T03:59:25;17.15;;;10.23;;
23290;SDS011;11814;44.686;10.842;2023-02-01T04:01:51;24.70;;;11.10;;
23290;SDS011;11814;44.686;10.842;2023-02-01T04:04:18;17.23;;;9.90;;
23290;SDS011;11814;44.686;10.842;2023-02-01T04:06:49;22.98;;;11.10;;
23290;SDS011;11814;44.686;10.842;2023-02-01T04:09:16;19.05;;;10.43;;
23290;SDS011;11814;44.686;10.842;2023-02-01T04:11:42;16.95;;;11.15;;
23290;SDS011;11814;44.686;10.842;2023-02-01T04:14:08;17.98;;;11.05;;
23290;SDS011;11814;44.686;10.842;2023-02-01T04:16:34;17.40;;;10.30;;
23290;SDS011;11814;44.686;10.842;2023-02-01T04:19:00;19.42;;;10.25;;
23290;SDS011;11814;44.686;10.842;2023-02-01T04:21:26;19.70;;;10.93;;
23290;SDS011;11814;44.686;10.842;2023-02-01T04:23:52;18.60;;;11.60;;
23290;SDS011;11814;44.686;10.842;2023-02-01T04:26:19;19.58;;;11.60;;
23290;SDS011;11814;44.686;10.842;2023-02-01T04:28:45;22.33;;;12.60;;
23290;SDS011;11814;44.686;10.842;2023-02-01T04:31:15;18.05;;;10.57;;
23290;SDS011;11814;44.686;10.842;2023-02-01T04:33:42;17.92;;;11.27;;
23290;SDS011;11814;44.686;10.842;2023-02-01T04:36:07;23.33;;;11.20;;
23290;SDS011;11814;44.686;10.842;2023-02-01T04:38:33;20.45;;;11.35;;
23290;SDS011;11814;44.686;10.842;2023-02-01T04:40:59;21.42;;;10.93;;
23290;SDS011;11814;44.686;10.842;2023-02-01T04:43:25;23.52;;;11.27;;
23290;SDS011;11814;44.686;10.842;2023-02-01T04:45:51;19.92;;;10.77;;
23290;SDS011;11814;44.686;10.842;2023-02-01T04:48:19;18.35;;;10.18;;
23290;SDS011;11814;44.686;10.842;2023-02-01T04:50:46;18.95;;;9.80;;
23290;SDS011;11814;44.686;10.842;2023-02-01T04:53:13;16.08;;;9.48;;
23290;SDS011;11814;44.686;10.842;2023-02-01T04:55:40;18.88;;;9.80;;
23290;SDS011;11814;44.686;10.842;2023-02-01T04:58:07;16.15;;;8.18;;
23290;SDS011;11814;44.686;10.842;2023-02-01T05:00:33;18.77;;;8.93;;
23290;SDS011;11814;44.686;10.842;2023-02-01T05:02:59;16.80;;;9.23;;
23290;SDS011;11814;44.686;10.842;2023-02-01T05:05:25;13.95;;;9.07;;
23290;SDS011;11814;44.686;10.842;2023-02-01T05:07:52;15.98;;;9.85;;
23290;SDS011;11814;44.686;10.842;2023-02-01T05:10:17;19.50;;;10.15;;
23290;SDS011;11814;44.686;10.842;2023-02-01T05:12:43;20.17;;;9.55;;
23290;SDS011;11814;44.686;10.842;2023-02-01T05:15:28;23.35;;;10.05;;
23290;SDS011;11814;44.686;10.842;2023-02-01T05:17:55;22.75;;;9.98;;
23290;SDS011;11814;44.686;10.842;2023-02-01T05:20:21;19.08;;;9.75;;
23290;SDS011;11814;44.686;10.842;2023-02-01T05:22:47;20.42;;;10.60;;
23290;SDS011;11814;44.686;10.842;2023-02-01T05:25:12;19.92;;;9.95;;
23290;SDS011;11814;44.686;10.842;2023-02-01T05:27:38;20.30;;;9.90;;
23290;SDS011;11814;44.686;10.842;2023-02-01T05:30:04;24.55;;;10.85;;
23290;SDS011;11814;44.686;10.842;2023-02-01T05:32:31;25.52;;;10.07;;
23290;SDS011;11814;44.686;10.842;2023-02-01T05:34:57;18.30;;;9.88;;
23290;SDS011;11814;44.686;10.842;2023-02-01T05:37:23;15.48;;;9.90;;
23290;SDS011;11814;44.686;10.842;2023-02-01T05:39:49;22.25;;;10.55;;
23290;SDS011;11814;44.686;10.842;2023-02-01T05:42:14;21.55;;;10.50;;
23290;SDS011;11814;44.686;10.842;2023-02-01T05:44:40;23.25;;;10.50;;
23290;SDS011;11814;44.686;10.842;2023-02-01T05:47:06;22.10;;;10.77;;
23290;SDS011;11814;44.686;10.842;2023-02-01T05:49:32;23.10;;;11.23;;
23290;SDS011;11814;44.686;10.842;2023-02-01T05:51:58;20.88;;;10.98;;
23290;SDS011;11814;44.686;10.842;2023-02-01T05:54:23;20.40;;;11.15;;
23290;SDS011;11814;44.686;10.842;2023-02-01T05:56:49;22.95;;;10.60;;
23290;SDS011;11814;44.686;10.842;2023-02-01T05:59:15;20.48;;;10.70;;
23290;SDS011;11814;44.686;10.842;2023-02-01T06:01:40;18.92;;;11.23;;
23290;SDS011;11814;44.686;10.842;2023-02-01T06:04:06;19.13;;;10.98;;
23290;SDS011;11814;44.686;10.842;2023-02-01T06:06:32;28.75;;;12.38;;
23290;SDS011;11814;44.686;10.842;2023-02-01T06:08:58;21.77;;;12.20;;
23290;SDS011;11814;44.686;10.842;2023-02-01T06:11:25;22.75;;;10.82;;
23290;SDS011;11814;44.686;10.842;2023-02-01T06:13:51;28.23;;;12.43;;
23290;SDS011;11814;44.686;10.842;2023-02-01T06:16:17;33.13;;;12.38;;
23290;SDS011;11814;44.686;10.842;2023-02-01T06:18:43;26.88;;;12.20;;
23290;SDS011;11814;44.686;10.842;2023-02-01T06:21:08;26.90;;;12.35;;
23290;SDS011;11814;44.686;10.842;2023-02-01T06:23:34;24.27;;;12.25;;
23290;SDS011;11814;44.686;10.842;2023-02-01T06:28:27;21.67;;;11.98;;
23290;SDS011;11814;44.686;10.842;2023-02-01T06:30:54;25.50;;;12.13;;
23290;SDS011;11814;44.686;10.842;2023-02-01T06:33:20;22.02;;;12.77;;
23290;SDS011;11814;44.686;10.842;2023-02-01T06:35:45;23.80;;;12.50;;
23290;SDS011;11814;44.686;10.842;2023-02-01T06:38:12;23.13;;;11.63;;
23290;SDS011;11814;44.686;10.842;2023-02-01T06:40:39;27.27;;;12.63;;
23290;SDS011;11814;44.686;10.842;2023-02-01T06:43:06;23.88;;;12.10;;
23290;SDS011;11814;44.686;10.842;2023-02-01T06:45:31;24.52;;;11.35;;
23290;SDS011;11814;44.686;10.842;2023-02-01T06:47:58;38.42;;;13.93;;
23290;SDS011;11814;44.686;10.842;2023-02-01T06:50:25;25.88;;;11.65;;
23290;SDS011;11814;44.686;10.842;2023-02-01T06:52:50;20.98;;;10.93;;
23290;SDS011;11814;44.686;10.842;2023-02-01T06:55:16;27.42;;;11.15;;
23290;SDS011;11814;44.686;10.842;2023-02-01T06:57:42;24.08;;;11.48;;
23290;SDS011;11814;44.686;10.842;2023-02-01T07:00:08;32.88;;;12.25;;
23290;SDS011;11814;44.686;10.842;2023-02-01T07:02:34;19.65;;;11.32;;
23290;SDS011;11814;44.686;10.842;2023-02-01T07:05:00;27.05;;;11.32;;
23290;SDS011;11814;44.686;10.842;2023-02-01T07:07:25;30.25;;;11.20;;
23290;SDS011;11814;44.686;10.842;2023-02-01T07:09:51;28.65;;;12.18;;
23290;SDS011;11814;44.686;10.842;2023-02-01T07:12:17;30.23;;;11.80;;
23290;SDS011;11814;44.686;10.842;2023-02-01T07:14:44;24.08;;;11.27;;
23290;SDS011;11814;44.686;10.842;2023-02-01T07:17:09;26.75;;;10.75;;
23290;SDS011;11814;44.686;10.842;2023-02-01T07:19:35;28.98;;;11.38;;
23290;SDS011;11814;44.686;10.842;2023-02-01T07:22:01;26.25;;;11.63;;
23290;SDS011;11814;44.686;10.842;2023-02-01T07:24:26;26.02;;;12.45;;
23290;SDS011;11814;44.686;10.842;2023-02-01T07:26:52;30.70;;;11.90;;
23290;SDS011;11814;44.686;10.842;2023-02-01T07:29:18;28.80;;;12.48;;
23290;SDS011;11814;44.686;10.842;2023-02-01T07:31:44;33.05;;;13.05;;
23290;SDS011;11814;44.686;10.842;2023-02-01T07:34:10;29.95;;;12.30;;
23290;SDS011;11814;44.686;10.842;2023-02-01T07:36:36;26.95;;;13.13;;
23290;SDS011;11814;44.686;10.842;2023-02-01T07:39:02;25.08;;;13.68;;
23290;SDS011;11814;44.686;10.842;2023-02-01T07:41:28;26.90;;;12.70;;
23290;SDS011;11814;44.686;10.842;2023-02-01T07:43:54;27.90;;;12.82;;
23290;SDS011;11814;44.686;10.842;2023-02-01T07:46:20;25.88;;;12.23;;
23290;SDS011;11814;44.686;10.842;2023-02-01T07:48:46;32.47;;;11.65;;
23290;SDS011;11814;44.686;10.842;2023-02-01T07:51:13;24.45;;;11.00;;
23290;SDS011;11814;44.686;10.842;2023-02-01T07:53:40;25.08;;;10.23;;
23290;SDS011;11814;44.686;10.842;2023-02-01T07:56:14;18.65;;;10.00;;
23290;SDS011;11814;44.686;10.842;2023-02-01T07:58:41;20.17;;;9.07;;
23290;SDS011;11814;44.686;10.842;2023-02-01T08:01:14;17.88;;;9.77;;
23290;SDS011;11814;44.686;10.842;2023-02-01T08:03:44;19.30;;;9.48;;
23290;SDS011;11814;44.686;10.842;2023-02-01T08:06:11;21.98;;;9.57;;
23290;SDS011;11814;44.686;10.842;2023-02-01T08:08:37;23.63;;;10.82;;
23290;SDS011;11814;44.686;10.842;2023-02-01T08:11:03;18.17;;;9.57;;
23290;SDS011;11814;44.686;10.842;2023-02-01T08:13:30;24.52;;;10.27;;
23290;SDS011;11814;44.686;10.842;2023-02-01T08:16:00;23.05;;;11.00;;
23290;SDS011;11814;44.686;10.842;2023-02-01T08:18:27;28.35;;;11.43;;
23290;SDS011;11814;44.686;10.842;2023-02-01T08:20:53;32.45;;;11.45;;
23290;SDS011;11814;44.686;10.842;2023-02-01T08:23:19;27.20;;;11.30;;
23290;SDS011;11814;44.686;10.842;2023-02-01T08:25:45;30.15;;;11.18;;
23290;SDS011;11814;44.686;10.842;2023-02-01T08:28:11;28.92;;;13.43;;
23290;SDS011;11814;44.686;10.842;2023-02-01T08:30:37;28.92;;;13.95;;
23290;SDS011;11814;44.686;10.842;2023-02-01T08:33:04;33.45;;;14.00;;
23290;SDS011;11814;44.686;10.842;2023-02-01T08:35:37;43.05;;;14.73;;
23290;SDS011;11814;44.686;10.842;2023-02-01T08:38:03;48.03;;;15.05;;
23290;SDS011;11814;44.686;10.842;2023-02-01T08:40:29;40.03;;;15.52;;
23290;SDS011;11814;44.686;10.842;2023-02-01T08:42:56;41.58;;;15.15;;
23290;SDS011;11814;44.686;10.842;2023-02-01T08:45:25;43.60;;;15.80;;
23290;SDS011;11814;44.686;10.842;2023-02-01T08:47:54;40.45;;;15.80;;
23290;SDS011;11814;44.686;10.842;2023-02-01T08:50:20;40.60;;;15.95;;
23290;SDS011;11814;44.686;10.842;2023-02-01T08:52:47;35.92;;;16.90;;
23290;SDS011;11814;44.686;10.842;2023-02-01T08:55:13;32.30;;;17.35;;
23290;SDS011;11814;44.686;10.842;2023-02-01T08:57:39;42.38;;;17.13;;
23290;SDS011;11814;44.686;10.842;2023-02-01T09:00:07;31.77;;;15.85;;
23290;SDS011;11814;44.686;10.842;2023-02-01T09:02:35;38.63;;;16.58;;
23290;SDS011;11814;44.686;10.842;2023-02-01T09:05:01;33.10;;;16.17;;
23290;SDS011;11814;44.686;10.842;2023-02-01T09:07:28;28.95;;;16.48;;
23290;SDS011;11814;44.686;10.842;2023-02-01T09:09:54;25.35;;;14.60;;
23290;SDS011;11814;44.686;10.842;2023-02-01T09:12:21;32.83;;;15.50;;
23290;SDS011;11814;44.686;10.842;2023-02-01T09:14:47;30.08;;;15.40;;
23290;SDS011;11814;44.686;10.842;2023-02-01T09:17:13;30.92;;;15.90;;
23290;SDS011;11814;44.686;10.842;2023-02-01T09:19:39;29.73;;;15.30;;
23290;SDS011;11814;44.686;10.842;2023-02-01T09:22:05;32.67;;;14.38;;
23290;SDS011;11814;44.686;10.842;2023-02-01T09:24:31;33.42;;;14.93;;
23290;SDS011;11814;44.686;10.842;2023-02-01T09:26:56;28.20;;;14.60;;
23290;SDS011;11814;44.686;10.842;2023-02-01T09:29:22;25.13;;;13.65;;
23290;SDS011;11814;44.686;10.842;2023-02-01T09:31:48;31.00;;;13.82;;
23290;SDS011;11814;44.686;10.842;2023-02-01T09:34:13;28.63;;;13.82;;
23290;SDS011;11814;44.686;10.842;2023-02-01T09:36:40;28.58;;;13.43;;
23290;SDS011;11814;44.686;10.842;2023-02-01T09:39:06;33.38;;;13.63;;
23290;SDS011;11814;44.686;10.842;2023-02-01T09:41:37;28.98;;;13.98;;
23290;SDS011;11814;44.686;10.842;2023-02-01T09:46:59;22.95;;;13.27;;
23290;SDS011;11814;44.686;10.842;2023-02-01T09:49:32;27.48;;;12.77;;
23290;SDS011;11814;44.686;10.842;2023-02-01T09:52:07;26.15;;;13.60;;
23290;SDS011;11814;44.686;10.842;2023-02-01T09:54:42;23.75;;;12.23;;
23290;SDS011;11814;44.686;10.842;2023-02-01T09:57:19;25.55;;;12.55;;
23290;SDS011;11814;44.686;10.842;2023-02-01T09:59:57;25.98;;;13.63;;
23290;SDS011;11814;44.686;10.842;2023-02-01T10:02:29;23.83;;;13.25;;
23290;SDS011;11814;44.686;10.842;2023-02-01T10:04:59;27.92;;;14.57;;
23290;SDS011;11814;44.686;10.842;2023-02-01T10:26:26;33.08;;;18.02;;
23290;SDS011;11814;44.686;10.842;2023-02-01T10:28:58;37.22;;;17.75;;
23290;SDS011;11814;44.686;10.842;2023-02-01T10:31:28;34.03;;;19.45;;
23290;SDS011;11814;44.686;10.842;2023-02-01T10:33:59;42.22;;;19.60;;
23290;SDS011;11814;44.686;10.842;2023-02-01T10:36:38;37.35;;;20.45;;
23290;SDS011;11814;44.686;10.842;2023-02-01T10:39:08;35.30;;;20.08;;
23290;SDS011;11814;44.686;10.842;2023-02-01T10:41:37;37.38;;;21.67;;
23290;SDS011;11814;44.686;10.842;2023-02-01T10:44:07;36.20;;;22.52;;
23290;SDS011;11814;44.686;10.842;2023-02-01T10:46:40;36.88;;;22.25;;
23290;SDS011;11814;44.686;10.842;2023-02-01T10:49:08;41.00;;;23.70;;
23290;SDS011;11814;44.686;10.842;2023-02-01T10:54:17;46.20;;;27.13;;
23290;SDS011;11814;44.686;10.842;2023-02-01T10:56:47;49.80;;;26.73;;
23290;SDS011;11814;44.686;10.842;2023-02-01T10:59:18;47.15;;;28.20;;
23290;SDS011;11814;44.686;10.842;2023-02-01T11:01:48;49.78;;;28.92;;
23290;SDS011;11814;44.686;10.842;2023-02-01T11:04:19;48.17;;;28.25;;
23290;SDS011;11814;44.686;10.842;2023-02-01T11:06:51;47.25;;;26.90;;
23290;SDS011;11814;44.686;10.842;2023-02-01T11:09:22;51.17;;;28.38;;
23290;SDS011;11814;44.686;10.842;2023-02-01T11:14:19;48.90;;;27.73;;
23290;SDS011;11814;44.686;10.842;2023-02-01T11:16:58;48.50;;;26.65;;
23290;SDS011;11814;44.686;10.842;2023-02-01T11:19:25;46.47;;;26.38;;
23290;SDS011;11814;44.686;10.842;2023-02-01T11:21:55;42.65;;;27.10;;
23290;SDS011;11814;44.686;10.842;2023-02-01T11:26:59;43.63;;;26.70;;
23290;SDS011;11814;44.686;10.842;2023-02-01T11:29:29;49.05;;;27.88;;
23290;SDS011;11814;44.686;10.842;2023-02-01T11:32:03;46.35;;;27.55;;
23290;SDS011;11814;44.686;10.842;2023-02-01T11:34:36;48.70;;;27.70;;
23290;SDS011;11814;44.686;10.842;2023-02-01T11:37:05;51.60;;;29.17;;
23290;SDS011;11814;44.686;10.842;2023-02-01T11:39:57;47.40;;;27.75;;
23290;SDS011;11814;44.686;10.842;2023-02-01T11:42:26;51.63;;;28.85;;
23290;SDS011;11814;44.686;10.842;2023-02-01T11:47:45;39.08;;;22.48;;
23290;SDS011;11814;44.686;10.842;2023-02-01T11:50:17;44.47;;;24.45;;
23290;SDS011;11814;44.686;10.842;2023-02-01T11:56:00;42.97;;;21.92;;
23290;SDS011;11814;44.686;10.842;2023-02-01T12:16:09;27.90;;;15.60;;
23290;SDS011;11814;44.686;10.842;2023-02-01T12:21:26;28.67;;;16.35;;
23290;SDS011;11814;44.686;10.842;2023-02-01T12:26:46;33.88;;;17.08;;
23290;SDS011;11814;44.686;10.842;2023-02-01T12:29:46;28.33;;;15.35;;
23290;SDS011;11814;44.686;10.842;2023-02-01T12:38:20;28.90;;;15.32;;
23290;SDS011;11814;44.686;10.842;2023-02-01T12:43:37;28.80;;;16.02;;
23290;SDS011;11814;44.686;10.842;2023-02-01T12:46:19;30.17;;;16.08;;
23290;SDS011;11814;44.686;10.842;2023-02-01T12:51:24;26.88;;;14.43;;
23290;SDS011;11814;44.686;10.842;2023-02-01T12:54:14;21.75;;;12.70;;
23290;SDS011;11814;44.686;10.842;2023-02-01T13:00:06;26.58;;;14.45;;
23290;SDS011;11814;44.686;10.842;2023-02-01T13:02:42;24.38;;;12.95;;
23290;SDS011;11814;44.686;10.842;2023-02-01T13:05:18;24.13;;;13.32;;
23290;SDS011;11814;44.686;10.842;2023-02-01T13:08:05;27.33;;;13.40;;
23290;SDS011;11814;44.686;10.842;2023-02-01T13:15:48;25.52;;;12.63;;
23290;SDS011;11814;44.686;10.842;2023-02-01T13:18:35;21.58;;;12.40;;
23290;SDS011;11814;44.686;10.842;2023-02-01T13:21:12;26.85;;;13.30;;
23290;SDS011;11814;44.686;10.842;2023-02-01T13:23:43;24.27;;;13.77;;
23290;SDS011;11814;44.686;10.842;2023-02-01T13:26:11;26.80;;;13.55;;
23290;SDS011;11814;44.686;10.842;2023-02-01T13:42:55;28.63;;;14.20;;
23290;SDS011;11814;44.686;10.842;2023-02-01T13:45:25;26.65;;;14.38;;
23290;SDS011;11814;44.686;10.842;2023-02-01T13:47:55;27.23;;;14.98;;
23290;SDS011;11814;44.686;10.842;2023-02-01T13:55:46;28.70;;;14.05;;
23290;SDS011;11814;44.686;10.842;2023-02-01T14:01:39;26.70;;;14.27;;
23290;SDS011;11814;44.686;10.842;2023-02-01T14:03:47;28.45;;;14.68;;
23290;SDS011;11814;44.686;10.842;2023-02-01T14:19:22;31.95;;;15.55;;
23290;SDS011;11814;44.686;10.842;2023-02-01T14:21:54;28.38;;;15.35;;
23290;SDS011;11814;44.686;10.842;2023-02-01T14:24:29;29.38;;;15.43;;
23290;SDS011;11814;44.686;10.842;2023-02-01T14:27:01;32.35;;;14.82;;
23290;SDS011;11814;44.686;10.842;2023-02-01T14:29:42;28.08;;;14.88;;
23290;SDS011;11814;44.686;10.842;2023-02-01T14:32:19;25.27;;;15.13;;
23290;SDS011;11814;44.686;10.842;2023-02-01T14:47:48;32.17;;;15.00;;
23290;SDS011;11814;44.686;10.842;2023-02-01T14:53:04;30.25;;;14.68;;
23290;SDS011;11814;44.686;10.842;2023-02-01T15:11:56;29.13;;;16.42;;
23290;SDS011;11814;44.686;10.842;2023-02-01T15:14:41;27.48;;;14.55;;
23290;SDS011;11814;44.686;10.842;2023-02-01T15:17:28;29.17;;;14.52;;
23290;SDS011;11814;44.686;10.842;2023-02-01T15:22:24;35.30;;;15.75;;
23290;SDS011;11814;44.686;10.842;2023-02-01T15:24:55;30.65;;;16.05;;
23290;SDS011;11814;44.686;10.842;2023-02-01T15:27:23;31.23;;;15.05;;
23290;SDS011;11814;44.686;10.842;2023-02-01T15:29:50;27.35;;;15.65;;
23290;SDS011;11814;44.686;10.842;2023-02-01T15:32:32;30.42;;;15.70;;
23290;SDS011;11814;44.686;10.842;2023-02-01T15:35:00;26.15;;;14.68;;
23290;SDS011;11814;44.686;10.842;2023-02-01T15:37:27;29.50;;;16.05;;
23290;SDS011;11814;44.686;10.842;2023-02-01T15:42:35;28.83;;;16.05;;
23290;SDS011;11814;44.686;10.842;2023-02-01T15:45:28;27.95;;;15.95;;
23290;SDS011;11814;44.686;10.842;2023-02-01T15:47:57;36.20;;;17.42;;
23290;SDS011;11814;44.686;10.842;2023-02-01T15:50:24;33.00;;;16.50;;
23290;SDS011;11814;44.686;10.842;2023-02-01T15:52:52;35.63;;;17.65;;
23290;SDS011;11814;44.686;10.842;2023-02-01T15:57:49;33.70;;;18.15;;
23290;SDS011;11814;44.686;10.842;2023-02-01T16:00:30;34.97;;;17.88;;
23290;SDS011;11814;44.686;10.842;2023-02-01T16:03:01;35.65;;;17.75;;
23290;SDS011;11814;44.686;10.842;2023-02-01T16:08:13;35.17;;;18.52;;
23290;SDS011;11814;44.686;10.842;2023-02-01T16:10:46;37.60;;;19.35;;
23290;SDS011;11814;44.686;10.842;2023-02-01T16:13:14;35.60;;;18.98;;
23290;SDS011;11814;44.686;10.842;2023-02-01T16:15:41;33.83;;;19.63;;
23290;SDS011;11814;44.686;10.842;2023-02-01T16:18:07;45.65;;;19.20;;
23290;SDS011;11814;44.686;10.842;2023-02-01T16:20:35;37.78;;;19.48;;
23290;SDS011;11814;44.686;10.842;2023-02-01T16:23:02;44.25;;;20.80;;
23290;SDS011;11814;44.686;10.842;2023-02-01T16:25:29;53.72;;;19.75;;
23290;SDS011;11814;44.686;10.842;2023-02-01T16:27:55;37.38;;;19.00;;
23290;SDS011;11814;44.686;10.842;2023-02-01T16:30:21;41.78;;;19.30;;
23290;SDS011;11814;44.686;10.842;2023-02-01T16:32:51;40.35;;;18.67;;
23290;SDS011;11814;44.686;10.842;2023-02-01T16:35:25;41.03;;;19.45;;
23290;SDS011;11814;44.686;10.842;2023-02-01T16:38:05;40.95;;;20.80;;
23290;SDS011;11814;44.686;10.842;2023-02-01T16:40:38;43.67;;;22.52;;
23290;SDS011;11814;44.686;10.842;2023-02-01T16:43:10;42.03;;;22.50;;
23290;SDS011;11814;44.686;10.842;2023-02-01T16:45:38;44.20;;;21.73;;
23290;SDS011;11814;44.686;10.842;2023-02-01T16:48:05;57.20;;;21.60;;
23290;SDS011;11814;44.686;10.842;2023-02-01T16:50:32;47.25;;;20.20;;
23290;SDS011;11814;44.686;10.842;2023-02-01T16:52:58;43.38;;;22.92;;
23290;SDS011;11814;44.686;10.842;2023-02-01T16:55:26;44.35;;;20.63;;
23290;SDS011;11814;44.686;10.842;2023-02-01T16:57:52;43.63;;;21.25;;
23290;SDS011;11814;44.686;10.842;2023-02-01T17:00:18;49.92;;;22.60;;
23290;SDS011;11814;44.686;10.842;2023-02-01T17:02:45;69.45;;;23.08;;
23290;SDS011;11814;44.686;10.842;2023-02-01T17:05:10;45.70;;;22.33;;
23290;SDS011;11814;44.686;10.842;2023-02-01T17:07:37;54.95;;;23.13;;
23290;SDS011;11814;44.686;10.842;2023-02-01T17:10:05;59.97;;;23.70;;
23290;SDS011;11814;44.686;10.842;2023-02-01T17:12:37;46.05;;;23.92;;
23290;SDS011;11814;44.686;10.842;2023-02-01T17:15:03;63.22;;;26.80;;
23290;SDS011;11814;44.686;10.842;2023-02-01T17:17:32;52.88;;;24.10;;
23290;SDS011;11814;44.686;10.842;2023-02-01T17:20:01;50.20;;;25.10;;
23290;SDS011;11814;44.686;10.842;2023-02-01T17:22:28;48.78;;;24.77;;
23290;SDS011;11814;44.686;10.842;2023-02-01T17:24:53;52.20;;;24.15;;
23290;SDS011;11814;44.686;10.842;2023-02-01T17:27:19;51.80;;;25.38;;
23290;SDS011;11814;44.686;10.842;2023-02-01T17:29:45;52.15;;;25.73;;